^^
Saratoga-Weather Station Historical Data
Daily Summary for May 11, 2020 Units:  Metric    English   Both
Daily Weekly Monthly Yearly Custom
  High: Low: Average:
Temperature: 7.8 °C 3.5 °C 5.7 °C
Dew Point: 4.7 °C 0.2 °C 1.9 °C
Humidity: 91% 61% 77%
Wind Speed: 33.8km/h 3.2km/h 12.7km/h
Wind Gust: 43.5km/h - -
Wind- - West
Pressure: 1016.3 hPa 1003.4 hPa -
Precipitation: 1.8 mm    
Historical Graphs
 
 
Tabular Data for May 11, 2020
Time Temperature Dew Point Pressure Wind Wind Speed Wind Gust Humidity Rainfall Rate (Hourly) solar
00:02 6.9 °C 4.7 °C 1003.4 hPa West 17.7 km/h 19.3 km/h 86% 0.0 mm 0 W/m2
00:07 6.9 °C 4.6 °C 1003.7 hPa WSW 9.7 km/h 19.3 km/h 85% 0.0 mm 0 W/m2
00:12 6.9 °C 4.4 °C 1003.7 hPa WNW 13 km/h 24.1 km/h 84% 0.0 mm 0 W/m2
00:17 6.9 °C 4.4 °C 1004.1 hPa West 11.1 km/h 17.7 km/h 84% 0.0 mm 0 W/m2
00:22 6.9 °C 4.4 °C 1004.1 hPa NW 11.1 km/h 17.7 km/h 84% 0.0 mm 0 W/m2
00:27 6.9 °C 4.4 °C 1004.1 hPa SW 14.3 km/h 19.3 km/h 84% 0.0 mm 0 W/m2
00:32 6.8 °C 4.6 °C 1004.7 hPa West 13 km/h 25.7 km/h 86% 0.2 mm 0 W/m2
00:37 6.4 °C 4.4 °C 1004.7 hPa West 25.9 km/h 37 km/h 87% 1.3 mm 0 W/m2
00:42 5.8 °C 4.1 °C 1005.1 hPa West 9.7 km/h 19.3 km/h 89% 1.5 mm 0 W/m2
00:47 5.4 °C 3.9 °C 1005.4 hPa West 14.3 km/h 29 km/h 90% 1.5 mm 0 W/m2
00:52 5.3 °C 4 °C 1005.1 hPa WNW 7.9 km/h 9.7 km/h 91% 1.5 mm 0 W/m2
00:57 5.3 °C 4 °C 1005.4 hPa West 20.9 km/h 29 km/h 91% 1.5 mm 0 W/m2
01:02 5.3 °C 3.8 °C 1005.8 hPa WSW 13 km/h 24.1 km/h 90% 1.8 mm 0 W/m2
01:07 5.3 °C 3.8 °C 1005.4 hPa WSW 17.7 km/h 22.5 km/h 90% 1.8 mm 0 W/m2
01:12 5.3 °C 3.8 °C 1005.8 hPa West 4.7 km/h 16.1 km/h 90% 1.8 mm 0 W/m2
01:17 5.3 °C 3.8 °C 1005.8 hPa WSW 7.9 km/h 16.1 km/h 90% 1.8 mm 0 W/m2
01:22 5.2 °C 3.7 °C 1005.8 hPa West 13 km/h 24.1 km/h 90% 1.8 mm 0 W/m2
01:27 5.2 °C 3.7 °C 1005.8 hPa WSW 11.1 km/h 11.3 km/h 90% 1.8 mm 0 W/m2
01:32 5.1 °C 3.6 °C 1005.8 hPa NW 13 km/h 20.9 km/h 90% 1.5 mm 0 W/m2
01:37 5.1 °C 3.6 °C 1005.8 hPa NW 13 km/h 12.9 km/h 90% 0.5 mm 0 W/m2
01:42 5.1 °C 3.6 °C 1005.8 hPa West 3.2 km/h 14.5 km/h 90% 0.2 mm 0 W/m2
01:47 5.1 °C 3.6 °C 1005.8 hPa WNW 11.1 km/h 12.9 km/h 90% 0.2 mm 0 W/m2
01:52 5.1 °C 3.6 °C 1005.8 hPa WNW 16.3 km/h 24.1 km/h 90% 0.2 mm 0 W/m2
01:57 5.2 °C 3.5 °C 1005.8 hPa WNW 27.4 km/h 27.4 km/h 89% 0.2 mm 0 W/m2
02:02 5.3 °C 3.6 °C 1006.1 hPa West 9.7 km/h 20.9 km/h 89% 0.0 mm 0 W/m2
02:07 5.4 °C 3.4 °C 1006.1 hPa West 13 km/h 27.4 km/h 87% 0.0 mm 0 W/m2
02:12 5.5 °C 3.3 °C 1006.1 hPa WNW 7.9 km/h 19.3 km/h 86% 0.0 mm 0 W/m2
02:17 5.5 °C 3.2 °C 1006.4 hPa WNW 20.9 km/h 27.4 km/h 85% 0.0 mm 0 W/m2
02:22 5.6 °C 3.1 °C 1006.4 hPa WSW 11.1 km/h 22.5 km/h 84% 0.0 mm 0 W/m2
02:27 5.5 °C 2.8 °C 1006.4 hPa West 19.5 km/h 30.6 km/h 83% 0.0 mm 0 W/m2
02:32 5.5 °C 2.8 °C 1006.8 hPa West 20.9 km/h 27.4 km/h 83% 0.0 mm 0 W/m2
02:37 5.4 °C 2.7 °C 1006.8 hPa West 13 km/h 12.9 km/h 83% 0.0 mm 0 W/m2
02:42 5.3 °C 2.6 °C 1007.1 hPa West 14.3 km/h 27.4 km/h 83% 0.0 mm 0 W/m2
02:47 5.4 °C 2.6 °C 1007.1 hPa West 13 km/h 19.3 km/h 82% 0.0 mm 0 W/m2
02:52 5.3 °C 2.3 °C 1007.1 hPa West 14.3 km/h 17.7 km/h 81% 0.0 mm 0 W/m2
02:57 5.3 °C 2.3 °C 1007.5 hPa West 11.1 km/h 22.5 km/h 81% 0.0 mm 0 W/m2
03:02 5.3 °C 2.1 °C 1007.5 hPa West 11.1 km/h 27.4 km/h 80% 0.0 mm 0 W/m2
03:07 5.3 °C 2.1 °C 1007.5 hPa NW 6.4 km/h 22.5 km/h 80% 0.0 mm 0 W/m2
03:12 5.2 °C 1.9 °C 1007.5 hPa WSW 11.1 km/h 30.6 km/h 79% 0.0 mm 0 W/m2
03:17 5.2 °C 1.9 °C 1007.1 hPa North 13 km/h 29 km/h 79% 0.0 mm 0 W/m2
03:22 5.3 °C 1.8 °C 1007.5 hPa West 14.3 km/h 24.1 km/h 78% 0.0 mm 0 W/m2
03:27 5.2 °C 1.7 °C 1007.5 hPa West 11.1 km/h 29 km/h 78% 0.0 mm 0 W/m2
03:32 5.2 °C 1.7 °C 1007.5 hPa WNW 7.9 km/h 16.1 km/h 78% 0.0 mm 0 W/m2
03:37 5.2 °C 1.7 °C 1007.5 hPa NW 6.4 km/h 27.4 km/h 78% 0.0 mm 0 W/m2
03:42 5.3 °C 2 °C 1007.5 hPa WNW 11.1 km/h 16.1 km/h 79% 0.0 mm 0 W/m2
03:47 5.3 °C 2 °C 1007.5 hPa WSW 6.4 km/h 20.9 km/h 79% 0.0 mm 0 W/m2
03:52 5.3 °C 2 °C 1007.5 hPa WNW 3.2 km/h 14.5 km/h 79% 0.0 mm 0 W/m2
03:57 5.3 °C 2 °C 1007.5 hPa NW 7.9 km/h 19.3 km/h 79% 0.0 mm 0 W/m2
04:02 5.4 °C 2.1 °C 1007.5 hPa WSW 6.4 km/h 16.1 km/h 79% 0.0 mm 0 W/m2
04:08 5.5 °C 2 °C 1007.8 hPa WNW 14.3 km/h 22.5 km/h 78% 0.0 mm 0 W/m2
04:13 5.6 °C 2.1 °C 1007.5 hPa WSW 14.3 km/h 14.5 km/h 78% 0.0 mm 0 W/m2
04:18 5.7 °C 2.2 °C 1007.5 hPa West 17.7 km/h 17.7 km/h 78% 0.0 mm 0 W/m2
04:23 5.8 °C 2.1 °C 1007.8 hPa SW 19.5 km/h 35.4 km/h 77% 0.0 mm 0 W/m2
04:28 5.8 °C 1.7 °C 1007.8 hPa WNW 14.3 km/h 30.6 km/h 75% 0.0 mm 0 W/m2
04:33 5.7 °C 1 °C 1008.1 hPa WNW 28.8 km/h 43.5 km/h 72% 0.0 mm 0 W/m2
04:38 5.6 °C 0.8 °C 1008.1 hPa WSW 7.9 km/h 30.6 km/h 71% 0.0 mm 0 W/m2
04:43 5.3 °C 1 °C 1008.5 hPa WNW 16.3 km/h 43.5 km/h 74% 0.0 mm 0 W/m2
04:48 5.2 °C 1.7 °C 1008.1 hPa NW 9.7 km/h 20.9 km/h 78% 0.0 mm 0 W/m2
04:53 4.9 °C 1.7 °C 1008.1 hPa WNW 13 km/h 32.2 km/h 80% 0.0 mm 0 W/m2
04:58 4.7 °C 1.9 °C 1008.5 hPa West 9.7 km/h 12.9 km/h 82% 0.0 mm 0 W/m2
05:03 4.5 °C 2 °C 1008.5 hPa NW 4.7 km/h 17.7 km/h 84% 0.0 mm 0 W/m2
05:08 4.4 °C 1.9 °C 1008.5 hPa WNW 4.7 km/h 12.9 km/h 84% 0.0 mm 0 W/m2
05:13 4.3 °C 2 °C 1008.5 hPa West 4.7 km/h 16.1 km/h 85% 0.0 mm 0 W/m2
05:18 4.3 °C 2 °C 1008.5 hPa West 4.7 km/h 16.1 km/h 85% 0.0 mm 0 W/m2
05:23 4.3 °C 1.8 °C 1008.8 hPa West 4.7 km/h 17.7 km/h 84% 0.0 mm 0 W/m2
05:28 4.3 °C 1.8 °C 1008.8 hPa WNW 11.1 km/h 19.3 km/h 84% 0.0 mm 0 W/m2
05:33 4.3 °C 1.8 °C 1008.8 hPa WSW 13 km/h 16.1 km/h 84% 0.0 mm 0 W/m2
05:38 4.4 °C 1.9 °C 1009.1 hPa NW 7.9 km/h 17.7 km/h 84% 0.0 mm 0 W/m2
05:43 4.4 °C 1.9 °C 1008.8 hPa WSW 14.3 km/h 20.9 km/h 84% 0.0 mm 0 W/m2
05:48 4.4 °C 1.9 °C 1008.8 hPa WNW 13 km/h 14.5 km/h 84% 0.0 mm 0 W/m2
05:53 4.5 °C 2 °C 1008.8 hPa West 14.3 km/h 14.5 km/h 84% 0.0 mm 0 W/m2
05:58 4.6 °C 2.1 °C 1009.1 hPa West 11.1 km/h 19.3 km/h 84% 0.0 mm 0 W/m2
06:03 4.7 °C 2.2 °C 1009.1 hPa WNW 9.7 km/h 16.1 km/h 84% 0.0 mm 0 W/m2
06:08 4.8 °C 2.3 °C 1008.8 hPa West 16.3 km/h 30.6 km/h 84% 0.0 mm 0 W/m2
06:13 4.9 °C 2.1 °C 1008.8 hPa WNW 14.3 km/h 19.3 km/h 82% 0.0 mm 0 W/m2
06:18 4.9 °C 1.9 °C 1008.8 hPa WSW 13 km/h 24.1 km/h 81% 0.0 mm 0 W/m2
06:23 4.9 °C 1.9 °C 1009.1 hPa SW 22.7 km/h 25.7 km/h 81% 0.0 mm 0 W/m2
06:28 4.8 °C 2 °C 1009.1 hPa WNW 11.1 km/h 20.9 km/h 82% 0.0 mm 0 W/m2
06:33 4.8 °C 2 °C 1008.8 hPa West 16.3 km/h 17.7 km/h 82% 0.0 mm 0 W/m2
06:38 4.8 °C 2.2 °C 1009.1 hPa WNW 17.7 km/h 22.5 km/h 83% 0.0 mm 0 W/m2
06:43 4.8 °C 2.2 °C 1009.1 hPa NW 4.7 km/h 11.3 km/h 83% 0.0 mm 0 W/m2
06:48 4.7 °C 2.1 °C 1009.1 hPa SW 7.9 km/h 22.5 km/h 83% 0.0 mm 0 W/m2
06:53 4.7 °C 2.2 °C 1009.1 hPa WSW 19.5 km/h 19.3 km/h 84% 0.0 mm 0 W/m2
06:58 4.7 °C 2.2 °C 1009.1 hPa WNW 16.3 km/h 20.9 km/h 84% 0.0 mm 0 W/m2
07:03 4.8 °C 2.3 °C 1009.1 hPa WSW 11.1 km/h 17.7 km/h 84% 0.0 mm 0 W/m2
07:08 4.8 °C 2.3 °C 1009.1 hPa West 9.7 km/h 17.7 km/h 84% 0.0 mm 0 W/m2
07:13 4.8 °C 2.5 °C 1009.1 hPa NW 14.3 km/h 17.7 km/h 85% 0.0 mm 0 W/m2
07:18 4.8 °C 2.5 °C 1009.5 hPa West 13 km/h 16.1 km/h 85% 0.0 mm 0 W/m2
07:23 4.8 °C 2.5 °C 1009.5 hPa West 17.7 km/h 19.3 km/h 85% 0.0 mm 0 W/m2
07:29 4.9 °C 2.4 °C 1009.5 hPa West 16.3 km/h 20.9 km/h 84% 0.0 mm 0 W/m2
07:34 4.9 °C 2.4 °C 1009.5 hPa West 9.7 km/h 12.9 km/h 84% 0.0 mm 0 W/m2
07:39 4.9 °C 2.4 °C 1009.5 hPa West 20.9 km/h 20.9 km/h 84% 0.0 mm 0 W/m2
07:44 5 °C 2.4 °C 1009.8 hPa WNW 7.9 km/h 20.9 km/h 83% 0.0 mm 0 W/m2
07:49 5 °C 2.4 °C 1010.2 hPa West 17.7 km/h 32.2 km/h 83% 0.0 mm 0 W/m2
07:54 5.1 °C 2.5 °C 1010.2 hPa West 14.3 km/h 24.1 km/h 83% 0.0 mm 0 W/m2
07:59 5.1 °C 2.5 °C 1010.2 hPa WNW 16.3 km/h 22.5 km/h 83% 0.0 mm 5 W/m2
08:04 5 °C 2.4 °C 1010.2 hPa West 13 km/h 17.7 km/h 83% 0.0 mm 9 W/m2
08:09 5 °C 2.2 °C 1010.2 hPa WNW 11.1 km/h 24.1 km/h 82% 0.0 mm 14 W/m2
08:14 5 °C 2.2 °C 1010.5 hPa WSW 17.7 km/h 25.7 km/h 82% 0.0 mm 25 W/m2
08:19 5.1 °C 2.3 °C 1010.2 hPa WNW 13 km/h 17.7 km/h 82% 0.0 mm 42 W/m2
08:24 5.1 °C 2.3 °C 1010.5 hPa West 14.3 km/h 14.5 km/h 82% 0.0 mm 23 W/m2
08:29 5.1 °C 2.5 °C 1010.5 hPa WSW 4.7 km/h 20.9 km/h 83% 0.0 mm 21 W/m2
08:34 5 °C 2.4 °C 1010.2 hPa WSW 3.2 km/h 11.3 km/h 83% 0.0 mm 25 W/m2
08:39 5 °C 2.4 °C 1010.2 hPa West 6.4 km/h 19.3 km/h 83% 0.0 mm 28 W/m2
08:44 5 °C 2.4 °C 1010.2 hPa WSW 6.4 km/h 17.7 km/h 83% 0.0 mm 32 W/m2
08:49 5 °C 2.4 °C 1010.2 hPa West 14.3 km/h 16.1 km/h 83% 0.0 mm 37 W/m2
08:54 5.1 °C 2.5 °C 1010.2 hPa West 14.3 km/h 22.5 km/h 83% 0.0 mm 46 W/m2
08:59 5.1 °C 2.3 °C 1010.5 hPa WNW 9.7 km/h 19.3 km/h 82% 0.0 mm 49 W/m2
09:04 5.2 °C 2.4 °C 1010.2 hPa West 3.2 km/h 12.9 km/h 82% 0.0 mm 47 W/m2
09:09 5.2 °C 2.4 °C 1010.2 hPa WSW 6.4 km/h 14.5 km/h 82% 0.0 mm 42 W/m2
09:14 5.2 °C 2.4 °C 1010.5 hPa NW 7.9 km/h 14.5 km/h 82% 0.0 mm 32 W/m2
09:19 5.3 °C 2.6 °C 1010.5 hPa WSW 27.4 km/h 27.4 km/h 83% 0.0 mm 83 W/m2
09:24 5.3 °C 2.6 °C 1010.5 hPa West 4.7 km/h 14.5 km/h 83% 0.0 mm 60 W/m2
09:29 5.4 °C 2.7 °C 1010.5 hPa NW 4.7 km/h 12.9 km/h 83% 0.0 mm 79 W/m2
09:34 5.4 °C 2.7 °C 1010.5 hPa WSW 19.5 km/h 20.9 km/h 83% 0.0 mm 125 W/m2
09:39 5.6 °C 3.1 °C 1010.5 hPa West 3.2 km/h 20.9 km/h 84% 0.0 mm 132 W/m2
09:44 5.7 °C 3 °C 1010.5 hPa WNW 11.1 km/h 16.1 km/h 83% 0.0 mm 185 W/m2
09:49 5.8 °C 3.1 °C 1010.5 hPa NW 14.3 km/h 20.9 km/h 83% 0.0 mm 118 W/m2
09:54 5.8 °C 3.1 °C 1010.5 hPa West 16.3 km/h 16.1 km/h 83% 0.0 mm 77 W/m2
09:59 5.8 °C 3 °C 1010.2 hPa WNW 16.3 km/h 25.7 km/h 82% 0.0 mm 104 W/m2
10:05 5.8 °C 2.8 °C 1010.2 hPa West 13 km/h 16.1 km/h 81% 0.0 mm 77 W/m2
10:10 5.8 °C 2.6 °C 1010.5 hPa WNW 4.7 km/h 27.4 km/h 80% 0.0 mm 107 W/m2
10:15 5.8 °C 2.6 °C 1010.5 hPa West 11.1 km/h 22.5 km/h 80% 0.0 mm 151 W/m2
10:20 5.9 °C 2.5 °C 1010.5 hPa SW 7.9 km/h 14.5 km/h 79% 0.0 mm 206 W/m2
10:25 6 °C 2.6 °C 1010.8 hPa West 9.7 km/h 19.3 km/h 79% 0.0 mm 134 W/m2
10:30 6.1 °C 2.7 °C 1010.5 hPa NNW 9.7 km/h 16.1 km/h 79% 0.0 mm 114 W/m2
10:35 6.1 °C 2.4 °C 1010.8 hPa West 19.5 km/h 20.9 km/h 77% 0.0 mm 158 W/m2
10:40 6.1 °C 2.4 °C 1010.8 hPa West 4.7 km/h 14.5 km/h 77% 0.0 mm 193 W/m2
10:45 6.2 °C 2.3 °C 1010.8 hPa SW 9.7 km/h 20.9 km/h 76% 0.0 mm 137 W/m2
10:50 6.2 °C 2.1 °C 1010.8 hPa WNW 19.5 km/h 30.6 km/h 75% 0.0 mm 104 W/m2
10:55 6.2 °C 2.1 °C 1010.8 hPa NW 16.3 km/h 24.1 km/h 75% 0.0 mm 144 W/m2
11:00 6.3 °C 2.2 °C 1010.8 hPa West 9.7 km/h 14.5 km/h 75% 0.0 mm 137 W/m2
11:05 6.3 °C 2.2 °C 1011.2 hPa West 11.1 km/h 12.9 km/h 75% 0.0 mm 111 W/m2
11:10 6.3 °C 2.2 °C 1011.5 hPa WSW 16.3 km/h 27.4 km/h 75% 0.0 mm 176 W/m2
11:15 6.3 °C 2 °C 1011.2 hPa West 16.3 km/h 20.9 km/h 74% 0.0 mm 148 W/m2
11:20 6.3 °C 2.2 °C 1011.2 hPa West 17.7 km/h 24.1 km/h 75% 0.0 mm 167 W/m2
11:25 6.3 °C 2 °C 1011.2 hPa WNW 11.1 km/h 17.7 km/h 74% 0.0 mm 114 W/m2
11:30 6.3 °C 2 °C 1011.2 hPa West 16.3 km/h 17.7 km/h 74% 0.0 mm 98 W/m2
11:35 6.3 °C 2 °C 1011.2 hPa West 6.4 km/h 29 km/h 74% 0.0 mm 172 W/m2
11:41 6.4 °C 2.1 °C 1011.2 hPa WNW 14.3 km/h 22.5 km/h 74% 0.0 mm 132 W/m2
11:46 6.5 °C 2.2 °C 1011.5 hPa WNW 11.1 km/h 20.9 km/h 74% 0.0 mm 178 W/m2
11:51 6.5 °C 2.2 °C 1011.5 hPa WNW 13 km/h 14.5 km/h 74% 0.0 mm 192 W/m2
11:56 6.6 °C 2.3 °C 1011.5 hPa West 16.3 km/h 22.5 km/h 74% 0.0 mm 83 W/m2
12:01 6.6 °C 2.3 °C 1011.2 hPa WSW 16.3 km/h 17.7 km/h 74% 0.0 mm 151 W/m2
12:06 6.7 °C 2.2 °C 1011.5 hPa WNW 13 km/h 27.4 km/h 73% 0.0 mm 98 W/m2
12:11 6.7 °C 2.2 °C 1011.5 hPa NW 9.7 km/h 29 km/h 73% 0.0 mm 155 W/m2
12:16 6.7 °C 2.2 °C 1011.5 hPa West 13 km/h 16.1 km/h 73% 0.0 mm 162 W/m2
12:21 6.7 °C 2 °C 1011.5 hPa WNW 13 km/h 27.4 km/h 72% 0.0 mm 102 W/m2
12:26 6.8 °C 2.1 °C 1011.5 hPa WNW 11.1 km/h 25.7 km/h 72% 0.0 mm 211 W/m2
12:31 6.8 °C 2.1 °C 1011.5 hPa West 11.1 km/h 20.9 km/h 72% 0.0 mm 279 W/m2
12:36 6.8 °C 1.9 °C 1011.5 hPa West 13 km/h 27.4 km/h 71% 0.0 mm 200 W/m2
12:41 6.8 °C 2.1 °C 1011.5 hPa NW 4.7 km/h 11.3 km/h 72% 0.0 mm 193 W/m2
12:46 6.8 °C 2.1 °C 1011.5 hPa SW 16.3 km/h 32.2 km/h 72% 0.0 mm 127 W/m2
12:51 6.8 °C 2.1 °C 1011.5 hPa WSW 14.3 km/h 17.7 km/h 72% 0.0 mm 142 W/m2
12:56 6.8 °C 1.7 °C 1011.5 hPa WSW 19.5 km/h 19.3 km/h 70% 0.0 mm 118 W/m2
13:01 6.8 °C 1.9 °C 1011.2 hPa West 6.4 km/h 16.1 km/h 71% 0.0 mm 202 W/m2
13:06 6.9 °C 1.8 °C 1011.2 hPa West 20.9 km/h 22.5 km/h 70% 0.0 mm 162 W/m2
13:11 6.9 °C 1.6 °C 1011.2 hPa West 20.9 km/h 20.9 km/h 69% 0.0 mm 123 W/m2
13:16 6.9 °C 1.6 °C 1011.2 hPa West 11.1 km/h 20.9 km/h 69% 0.0 mm 183 W/m2
13:21 7 °C 1.7 °C 1011.2 hPa NW 7.9 km/h 22.5 km/h 69% 0.0 mm 146 W/m2
13:26 7.1 °C 1.8 °C 1011.2 hPa West 9.7 km/h 30.6 km/h 69% 0.0 mm 134 W/m2
13:31 7 °C 1.7 °C 1011.2 hPa WSW 13 km/h 19.3 km/h 69% 0.0 mm 125 W/m2
13:36 7.1 °C 1.8 °C 1011.2 hPa WNW 28.8 km/h 29 km/h 69% 0.0 mm 188 W/m2
13:41 7.1 °C 1.6 °C 1011.2 hPa West 4.7 km/h 20.9 km/h 68% 0.0 mm 105 W/m2
13:46 7.2 °C 1.7 °C 1011.2 hPa WNW 6.4 km/h 22.5 km/h 68% 0.0 mm 134 W/m2
13:51 7.2 °C 1.9 °C 1011.2 hPa West 13 km/h 20.9 km/h 69% 0.0 mm 62 W/m2
13:56 7.2 °C 1.7 °C 1011.2 hPa WNW 11.1 km/h 16.1 km/h 68% 0.0 mm 158 W/m2
14:01 7.2 °C 1.3 °C 1011.2 hPa NW 4.7 km/h 25.7 km/h 66% 0.0 mm 77 W/m2
14:06 7.2 °C 1.1 °C 1011.2 hPa NW 16.3 km/h 29 km/h 65% 0.0 mm 97 W/m2
14:12 7.2 °C 1.3 °C 1011.2 hPa WSW 17.7 km/h 25.7 km/h 66% 0.0 mm 127 W/m2
14:17 7.3 °C 1.6 °C 1011.2 hPa WSW 11.1 km/h 19.3 km/h 67% 0.0 mm 151 W/m2
14:22 7.3 °C 1.8 °C 1011.2 hPa WSW 19.5 km/h 19.3 km/h 68% 0.0 mm 251 W/m2
14:27 7.6 °C 1.9 °C 1011.2 hPa NW 6.4 km/h 8 km/h 67% 0.0 mm 156 W/m2
14:32 7.7 °C 1.3 °C 1011.2 hPa WSW 11.1 km/h 25.7 km/h 64% 0.0 mm 155 W/m2
14:37 7.8 °C 1 °C 1011.2 hPa West 17.7 km/h 33.8 km/h 62% 0.0 mm 109 W/m2
14:42 7.8 °C 0.7 °C 1011.5 hPa West 17.7 km/h 35.4 km/h 61% 0.0 mm 98 W/m2
14:47 7.7 °C 1.1 °C 1011.5 hPa WNW 13 km/h 17.7 km/h 63% 0.0 mm 93 W/m2
14:52 7.6 °C 0.6 °C 1011.5 hPa WNW 30.6 km/h 35.4 km/h 61% 0.0 mm 104 W/m2
14:57 7.5 °C 0.5 °C 1011.2 hPa WNW 25.9 km/h 25.7 km/h 61% 0.0 mm 76 W/m2
15:02 7.4 °C 0.4 °C 1011.2 hPa West 17.7 km/h 33.8 km/h 61% 0.0 mm 49 W/m2
15:07 7.3 °C 0.7 °C 1011.2 hPa West 16.3 km/h 20.9 km/h 63% 0.0 mm 72 W/m2
15:12 7.4 °C 0.8 °C 1011.5 hPa WNW 27.4 km/h 27.4 km/h 63% 0.0 mm 160 W/m2
15:17 7.6 °C 1 °C 1011.5 hPa WNW 22.7 km/h 32.2 km/h 63% 0.0 mm 142 W/m2
15:22 7.6 °C 0.8 °C 1011.5 hPa WSW 13 km/h 29 km/h 62% 0.0 mm 118 W/m2
15:27 7.6 °C 0.8 °C 1011.5 hPa WSW 17.7 km/h 19.3 km/h 62% 0.0 mm 100 W/m2
15:32 7.4 °C 0.8 °C 1011.5 hPa WSW 14.3 km/h 16.1 km/h 63% 0.0 mm 79 W/m2
15:37 7.4 °C 1 °C 1011.5 hPa SW 17.7 km/h 24.1 km/h 64% 0.0 mm 100 W/m2
15:42 7.4 °C 1 °C 1011.5 hPa West 6.4 km/h 17.7 km/h 64% 0.0 mm 76 W/m2
15:47 7.5 °C 0.9 °C 1011.5 hPa NW 17.7 km/h 22.5 km/h 63% 0.0 mm 102 W/m2
15:52 7.4 °C 0.6 °C 1011.9 hPa West 11.1 km/h 16.1 km/h 62% 0.0 mm 63 W/m2
15:57 7.3 °C 0.7 °C 1011.9 hPa WNW 17.7 km/h 22.5 km/h 63% 0.0 mm 65 W/m2
16:02 7.3 °C 0.9 °C 1011.9 hPa West 6.4 km/h 20.9 km/h 64% 0.0 mm 63 W/m2
16:07 7.2 °C 0.8 °C 1011.5 hPa WNW 14.3 km/h 19.3 km/h 64% 0.0 mm 58 W/m2
16:12 7.2 °C 1.1 °C 1011.5 hPa WNW 13 km/h 22.5 km/h 65% 0.0 mm 90 W/m2
16:17 7.2 °C 1.3 °C 1011.9 hPa SW 4.7 km/h 16.1 km/h 66% 0.0 mm 76 W/m2
16:22 7.2 °C 1.3 °C 1011.9 hPa WSW 13 km/h 22.5 km/h 66% 0.0 mm 60 W/m2
16:27 7.2 °C 1.3 °C 1011.9 hPa WNW 11.1 km/h 17.7 km/h 66% 0.0 mm 86 W/m2
16:32 7.3 °C 1.2 °C 1011.9 hPa WNW 4.7 km/h 12.9 km/h 65% 0.0 mm 97 W/m2
16:37 7.3 °C 1.2 °C 1011.5 hPa West 13 km/h 19.3 km/h 65% 0.0 mm 70 W/m2
16:42 7.3 °C 0.9 °C 1011.5 hPa West 11.1 km/h 12.9 km/h 64% 0.0 mm 33 W/m2
16:47 7.2 °C 0.8 °C 1011.5 hPa West 11.1 km/h 17.7 km/h 64% 0.0 mm 9 W/m2
16:52 7.2 °C 1.1 °C 1011.5 hPa West 6.4 km/h 14.5 km/h 65% 0.0 mm 9 W/m2
16:57 7.1 °C 1 °C 1011.9 hPa SSE 4.7 km/h 22.5 km/h 65% 0.0 mm 32 W/m2
17:02 7 °C 0.7 °C 1011.5 hPa WNW 19.5 km/h 27.4 km/h 64% 0.0 mm 18 W/m2
17:07 6.9 °C 0.3 °C 1011.5 hPa WSW 11.1 km/h 22.5 km/h 63% 0.0 mm 21 W/m2
17:12 7 °C 0.2 °C 1011.9 hPa West 4.7 km/h 27.4 km/h 62% 0.0 mm 11 W/m2
17:17 7 °C 0.4 °C 1012.2 hPa WSW 30.6 km/h 32.2 km/h 63% 0.0 mm 9 W/m2
17:22 6.8 °C 0.9 °C 1012.2 hPa WSW 33.8 km/h 41.8 km/h 66% 0.0 mm 12 W/m2
17:27 6.7 °C 0.8 °C 1012.2 hPa West 16.3 km/h 29 km/h 66% 0.0 mm 14 W/m2
17:32 6.4 °C 0.9 °C 1012.5 hPa West 16.3 km/h 41.8 km/h 68% 0.0 mm 7 W/m2
17:37 6.3 °C 0.8 °C 1012.2 hPa SSW 14.3 km/h 30.6 km/h 68% 0.0 mm 5 W/m2
17:42 6.3 °C 0.8 °C 1012.2 hPa WNW 17.7 km/h 24.1 km/h 68% 0.0 mm 5 W/m2
17:47 6.3 °C 0.8 °C 1012.5 hPa NW 25.9 km/h 30.6 km/h 68% 0.0 mm 0 W/m2
17:52 6.2 °C 0.9 °C 1012.5 hPa WNW 7.9 km/h 29 km/h 69% 0.0 mm 0 W/m2
17:57 6.2 °C 0.9 °C 1012.5 hPa West 6.4 km/h 24.1 km/h 69% 0.0 mm 0 W/m2
18:02 6.2 °C 1.1 °C 1012.5 hPa West 9.7 km/h 12.9 km/h 70% 0.0 mm 0 W/m2
18:07 6.2 °C 1.1 °C 1012.5 hPa NW 6.4 km/h 14.5 km/h 70% 0.0 mm 0 W/m2
18:12 6.1 °C 1.2 °C 1012.5 hPa WNW 7.9 km/h 24.1 km/h 71% 0.0 mm 0 W/m2
18:17 5.9 °C 1.2 °C 1012.9 hPa NW 6.4 km/h 17.7 km/h 72% 0.0 mm 0 W/m2
18:23 5.8 °C 1.3 °C 1012.9 hPa NNW 13 km/h 27.4 km/h 73% 0.0 mm 0 W/m2
18:28 5.7 °C 1.2 °C 1012.9 hPa West 16.3 km/h 16.1 km/h 73% 0.0 mm 0 W/m2
18:33 5.6 °C 1.3 °C 1012.9 hPa West 9.7 km/h 20.9 km/h 74% 0.0 mm 0 W/m2
18:38 5.6 °C 1.3 °C 1012.9 hPa West 13 km/h 20.9 km/h 74% 0.0 mm 0 W/m2
18:43 5.5 °C 1.2 °C 1012.9 hPa WNW 6.4 km/h 24.1 km/h 74% 0.0 mm 0 W/m2
18:48 5.5 °C 1.2 °C 1012.9 hPa WNW 7.9 km/h 25.7 km/h 74% 0.0 mm 0 W/m2
18:53 5.6 °C 1.3 °C 1013.2 hPa West 9.7 km/h 17.7 km/h 74% 0.0 mm 0 W/m2
18:58 5.6 °C 1.3 °C 1013.2 hPa West 19.5 km/h 19.3 km/h 74% 0.0 mm 0 W/m2
19:03 5.6 °C 1.3 °C 1013.5 hPa SW 20.9 km/h 32.2 km/h 74% 0.0 mm 0 W/m2
19:08 5.5 °C 1.2 °C 1013.5 hPa West 9.7 km/h 20.9 km/h 74% 0.0 mm 0 W/m2
19:13 5.5 °C 1.4 °C 1013.5 hPa WNW 3.2 km/h 16.1 km/h 75% 0.0 mm 0 W/m2
19:18 5.5 °C 1.4 °C 1013.5 hPa South 3.2 km/h 9.7 km/h 75% 0.0 mm 0 W/m2
19:23 5.4 °C 1.3 °C 1013.5 hPa WNW 14.3 km/h 19.3 km/h 75% 0.0 mm 0 W/m2
19:28 5.4 °C 1.5 °C 1013.5 hPa NNW 20.9 km/h 29 km/h 76% 0.0 mm 0 W/m2
19:33 5.3 °C 1.4 °C 1013.9 hPa WSW 13 km/h 25.7 km/h 76% 0.0 mm 0 W/m2
19:38 5.3 °C 1.6 °C 1013.9 hPa SW 11.1 km/h 25.7 km/h 77% 0.0 mm 0 W/m2
19:43 5.2 °C 1.5 °C 1014.2 hPa West 19.5 km/h 22.5 km/h 77% 0.0 mm 0 W/m2
19:48 5.1 °C 1.4 °C 1014.6 hPa West 27.4 km/h 27.4 km/h 77% 0.0 mm 0 W/m2
19:53 5.1 °C 1.6 °C 1014.2 hPa WNW 11.1 km/h 30.6 km/h 78% 0.0 mm 0 W/m2
19:58 4.9 °C 1.4 °C 1014.2 hPa West 22.7 km/h 22.5 km/h 78% 0.0 mm 0 W/m2
20:03 4.9 °C 1.6 °C 1014.2 hPa WNW 3.2 km/h 27.4 km/h 79% 0.0 mm 0 W/m2
20:08 4.8 °C 1.5 °C 1014.2 hPa WNW 25.9 km/h 32.2 km/h 79% 0.0 mm 0 W/m2
20:13 4.7 °C 1.4 °C 1014.6 hPa WNW 14.3 km/h 20.9 km/h 79% 0.0 mm 0 W/m2
20:18 4.7 °C 1.4 °C 1014.6 hPa WNW 11.1 km/h 22.5 km/h 79% 0.0 mm 0 W/m2
20:23 4.6 °C 1.4 °C 1014.6 hPa West 13 km/h 19.3 km/h 80% 0.0 mm 0 W/m2
20:28 4.6 °C 1.4 °C 1014.6 hPa West 11.1 km/h 20.9 km/h 80% 0.0 mm 0 W/m2
20:34 4.6 °C 1.4 °C 1014.9 hPa WNW 24.1 km/h 29 km/h 80% 0.0 mm 0 W/m2
20:39 4.6 °C 1.4 °C 1014.9 hPa NW 14.3 km/h 25.7 km/h 80% 0.0 mm 0 W/m2
20:44 4.6 °C 1.4 °C 1014.6 hPa WSW 13 km/h 29 km/h 80% 0.0 mm 0 W/m2
20:49 4.6 °C 1.4 °C 1014.6 hPa WSW 14.3 km/h 20.9 km/h 80% 0.0 mm 0 W/m2
20:54 4.6 °C 1.4 °C 1014.9 hPa NW 17.7 km/h 22.5 km/h 80% 0.0 mm 0 W/m2
20:59 4.6 °C 1.4 °C 1014.9 hPa NNW 14.3 km/h 24.1 km/h 80% 0.0 mm 0 W/m2
21:04 4.6 °C 1.4 °C 1014.9 hPa West 17.7 km/h 17.7 km/h 80% 0.0 mm 0 W/m2
21:09 4.6 °C 1.4 °C 1014.9 hPa West 4.7 km/h 16.1 km/h 80% 0.0 mm 0 W/m2
21:14 4.6 °C 1.4 °C 1014.9 hPa West 14.3 km/h 27.4 km/h 80% 0.0 mm 0 W/m2
21:19 4.7 °C 1.5 °C 1014.9 hPa NW 9.7 km/h 16.1 km/h 80% 0.0 mm 0 W/m2
21:24 4.7 °C 1.5 °C 1015.2 hPa WNW 16.3 km/h 27.4 km/h 80% 0.0 mm 0 W/m2
21:29 4.7 °C 1.5 °C 1015.2 hPa WSW 14.3 km/h 14.5 km/h 80% 0.0 mm 0 W/m2
21:34 4.7 °C 1.5 °C 1015.2 hPa West 17.7 km/h 27.4 km/h 80% 0.0 mm 0 W/m2
21:39 4.7 °C 1.5 °C 1015.2 hPa West 14.3 km/h 16.1 km/h 80% 0.0 mm 0 W/m2
21:44 4.7 °C 1.5 °C 1015.2 hPa WNW 14.3 km/h 14.5 km/h 80% 0.0 mm 0 W/m2
21:49 4.6 °C 1.4 °C 1015.6 hPa West 14.3 km/h 19.3 km/h 80% 0.0 mm 0 W/m2
21:54 4.6 °C 1.4 °C 1015.6 hPa West 6.4 km/h 20.9 km/h 80% 0.0 mm 0 W/m2
21:59 4.6 °C 1.6 °C 1015.6 hPa West 11.1 km/h 19.3 km/h 81% 0.0 mm 0 W/m2
22:04 4.5 °C 1.5 °C 1015.6 hPa WSW 4.7 km/h 20.9 km/h 81% 0.0 mm 0 W/m2
22:09 4.5 °C 1.5 °C 1015.9 hPa WNW 19.5 km/h 27.4 km/h 81% 0.0 mm 0 W/m2
22:14 4.6 °C 1.6 °C 1015.9 hPa WNW 16.3 km/h 29 km/h 81% 0.0 mm 0 W/m2
22:19 4.6 °C 1.6 °C 1015.9 hPa West 4.7 km/h 20.9 km/h 81% 0.0 mm 0 W/m2
22:24 4.6 °C 1.6 °C 1015.9 hPa West 20.9 km/h 22.5 km/h 81% 0.0 mm 0 W/m2
22:29 4.7 °C 1.7 °C 1015.9 hPa WNW 14.3 km/h 16.1 km/h 81% 0.0 mm 0 W/m2
22:34 4.7 °C 1.7 °C 1015.9 hPa WSW 22.5 km/h 22.5 km/h 81% 0.0 mm 0 W/m2
22:39 4.6 °C 1.6 °C 1015.9 hPa WNW 4.7 km/h 14.5 km/h 81% 0.0 mm 0 W/m2
22:44 4.6 °C 1.6 °C 1015.9 hPa WSW 14.3 km/h 19.3 km/h 81% 0.0 mm 0 W/m2
22:49 4.6 °C 1.6 °C 1015.9 hPa West 6.4 km/h 16.1 km/h 81% 0.0 mm 0 W/m2
22:54 4.6 °C 1.6 °C 1016.3 hPa WNW 11.1 km/h 19.3 km/h 81% 0.0 mm 0 W/m2
22:59 4.5 °C 1.5 °C 1015.9 hPa WNW 7.9 km/h 16.1 km/h 81% 0.0 mm 0 W/m2
23:04 4.4 °C 1.4 °C 1016.3 hPa West 9.7 km/h 17.7 km/h 81% 0.0 mm 0 W/m2
23:09 4.3 °C 1.3 °C 1016.3 hPa SW 7.9 km/h 12.9 km/h 81% 0.0 mm 0 W/m2
23:14 4.2 °C 1.2 °C 1015.9 hPa WNW 7.9 km/h 16.1 km/h 81% 0.0 mm 0 W/m2
23:19 4 °C 1.2 °C 1015.9 hPa WNW 4.7 km/h 20.9 km/h 82% 0.0 mm 0 W/m2
23:24 3.9 °C 1.1 °C 1015.9 hPa NW 4.7 km/h 22.5 km/h 82% 0.0 mm 0 W/m2
23:29 3.8 °C 1.2 °C 1015.9 hPa WNW 4.7 km/h 16.1 km/h 83% 0.0 mm 0 W/m2
23:34 3.7 °C 1.1 °C 1015.9 hPa North 4.7 km/h 17.7 km/h 83% 0.0 mm 0 W/m2
23:39 3.7 °C 1.1 °C 1015.9 hPa West 3.2 km/h 9.7 km/h 83% 0.0 mm 0 W/m2
23:44 3.6 °C 1 °C 1015.9 hPa WSW 6.4 km/h 17.7 km/h 83% 0.0 mm 0 W/m2
23:49 3.6 °C 1.2 °C 1015.9 hPa SW 3.2 km/h 8 km/h 84% 0.0 mm 0 W/m2
23:54 3.5 °C 1.1 °C 1015.9 hPa NW 6.4 km/h 16.1 km/h 84% 0.0 mm 0 W/m2
23:59 3.5 °C 1.1 °C 1015.9 hPa South 4.7 km/h 6.4 km/h 84% 0.0 mm 0 W/m2
Juneau County Weather
Compliments of Weather Underground - 4 mb